Time;durP1;ratioP1;P1;durP2;ratioP2;P2;SDS_P1;SDS_P2;PMS_P1;PMS_P2;Temp;Humidity;BMP_temperature;BMP_pressure;BME280_temperature;BME280_humidity;BME280_pressure;Samples;Min_cycle;Max_cycle;Signal;HPM_P1;HPM_P2
2021/06/13 00:02:14;;;;;;;9.65;2.53;;;;;;;16.82;75.95;101593.66;5083481;28;20508;-72
2021/06/13 00:04:40;;;;;;;9.13;2.50;;;;;;;16.84;76.51;101589.41;5067547;28;20052;-72
2021/06/13 00:07:06;;;;;;;13.57;2.60;;;;;;;16.64;79.39;101592.69;5081893;28;20032;-72
2021/06/13 00:09:31;;;;;;;10.32;2.92;;;;;;;16.63;79.03;101602.00;5089304;28;20028;-72
2021/06/13 00:11:57;;;;;;;11.27;2.75;;;;;;;16.71;79.53;101595.47;5086107;28;20419;-72
2021/06/13 00:14:22;;;;;;;10.95;2.50;;;;;;;16.81;79.39;101589.38;5082908;28;20051;-72
2021/06/13 00:16:49;;;;;;;12.40;2.78;;;;;;;16.73;80.67;101598.59;5078423;28;20656;-72
2021/06/13 00:19:14;;;;;;;8.25;2.40;;;;;;;16.46;82.85;101602.53;5091525;28;20039;-72
2021/06/13 00:21:40;;;;;;;10.80;2.78;;;;;;;16.34;83.63;101600.84;5084098;28;20036;-72
2021/06/13 00:24:06;;;;;;;14.23;3.00;;;;;;;16.23;84.49;101606.19;5087020;28;20385;-72
2021/06/13 00:26:32;;;;;;;12.55;2.90;;;;;;;16.42;82.92;101613.38;5078490;28;20021;-73
2021/06/13 00:28:58;;;;;;;10.32;2.70;;;;;;;16.37;83.96;101608.28;5084877;28;20113;-72
2021/06/13 00:31:23;;;;;;;7.50;2.78;;;;;;;16.23;84.16;101603.44;5092647;28;20112;-73
2021/06/13 00:33:50;;;;;;;11.27;2.88;;;;;;;16.18;83.82;101609.19;5091206;28;20048;-73
2021/06/13 00:36:17;;;;;;;8.40;2.85;;;;;;;16.04;84.35;101605.53;5092408;28;20032;-73
2021/06/13 00:38:42;;;;;;;9.05;2.47;;;;;;;15.95;84.26;101605.03;5065938;28;20082;-73
2021/06/13 00:41:10;;;;;;;10.57;3.17;;;;;;;16.10;83.47;101602.09;5060227;28;20056;-73
2021/06/13 00:43:35;;;;;;;11.63;3.00;;;;;;;15.90;83.03;101597.16;5069514;28;20071;-73
2021/06/13 00:46:01;;;;;;;7.80;2.70;;;;;;;15.88;83.80;101599.47;5078631;28;20052;-73
2021/06/13 00:48:27;;;;;;;10.75;2.85;;;;;;;15.77;84.95;101602.06;5084574;28;20032;-73
2021/06/13 00:50:54;;;;;;;10.45;2.95;;;;;;;15.75;83.99;101604.34;5072294;28;20089;-73
2021/06/13 00:53:21;;;;;;;17.42;4.75;;;;;;;15.84;83.64;101601.34;5065217;28;20036;-73
2021/06/13 00:55:59;;;;;;;11.38;2.85;;;;;;;16.00;81.71;101591.91;5067813;28;20633;-73
2021/06/13 00:58:25;;;;;;;11.88;3.28;;;;;;;16.02;81.08;101605.91;5070844;28;20459;-73
2021/06/13 01:00:51;;;;;;;8.50;3.33;;;;;;;15.93;80.51;101610.81;5047617;28;20031;-73
2021/06/13 01:03:19;;;;;;;14.10;2.80;;;;;;;15.89;80.40;101606.50;5057868;28;20043;-73
2021/06/13 01:05:44;;;;;;;13.95;2.47;;;;;;;15.81;80.71;101608.31;5085761;28;20874;-73
2021/06/13 01:08:42;;;;;;;10.40;2.65;;;;;;;15.79;79.76;101604.41;5073898;28;20028;-73
2021/06/13 01:11:36;;;;;;;12.85;2.83;;;;;;;15.48;81.02;101610.13;5079777;28;20062;-73
2021/06/13 01:14:25;;;;;;;11.85;2.70;;;;;;;15.58;80.56;101613.00;5060409;28;20028;-73
2021/06/13 01:17:13;;;;;;;9.70;2.90;;;;;;;15.51;80.54;101607.47;5067387;28;20032;-73
2021/06/13 01:20:13;;;;;;;11.00;2.85;;;;;;;15.66;78.52;101611.94;5061065;28;20055;-73
2021/06/13 01:22:45;;;;;;;13.52;3.20;;;;;;;15.77;77.45;101621.06;5066862;28;20434;-72
2021/06/13 01:25:28;;;;;;;12.70;2.90;;;;;;;15.63;78.36;101620.84;5067562;28;21776;-73
2021/06/13 01:28:13;;;;;;;10.70;2.80;;;;;;;15.62;78.20;101619.25;5091432;28;20396;-73
2021/06/13 01:30:39;;;;;;;16.00;2.85;;;;;;;15.68;77.57;101622.47;5048353;28;20111;-73
2021/06/13 01:33:09;;;;;;;8.65;2.70;;;;;;;15.49;79.00;101611.69;5063833;28;20077;-73
2021/06/13 01:35:37;;;;;;;9.43;2.72;;;;;;;15.46;78.31;101612.41;5071417;28;20032;-73
2021/06/13 01:38:03;;;;;;;10.88;3.00;;;;;;;15.24;79.51;101611.25;5087320;28;20488;-73
2021/06/13 01:40:33;;;;;;;10.43;2.83;;;;;;;15.24;79.41;101617.47;5088393;28;20441;-73
2021/06/13 01:42:59;;;;;;;11.40;2.90;;;;;;;15.07;80.80;101611.72;5088299;28;22054;-73
2021/06/13 01:45:34;;;;;;;12.93;3.13;;;;;;;15.20;79.95;101610.41;5060250;28;20143;-73
2021/06/13 01:48:01;;;;;;;12.57;3.15;;;;;;;15.25;79.29;101616.31;5086951;28;20028;-73
2021/06/13 01:50:30;;;;;;;10.95;3.50;;;;;;;15.23;79.52;101617.84;5067624;28;20511;-73
2021/06/13 01:53:03;;;;;;;5.72;3.15;;;;;;;15.25;79.51;101619.03;5071732;28;20391;-73
2021/06/13 01:55:29;;;;;;;11.98;2.88;;;;;;;15.21;78.90;101620.88;5067324;28;20036;-73
2021/06/13 01:57:57;;;;;;;10.73;3.00;;;;;;;15.27;78.41;101624.13;5086456;28;20032;-73
2021/06/13 02:00:37;;;;;;;13.45;3.53;;;;;;;15.23;78.60;101623.25;5077261;28;20476;-73
2021/06/13 02:03:11;;;;;;;10.48;2.83;;;;;;;15.25;78.80;101632.59;5072715;28;20084;-73
2021/06/13 02:05:47;;;;;;;9.77;3.20;;;;;;;14.97;79.98;101634.81;5063903;28;20117;-73
2021/06/13 02:08:14;;;;;;;9.05;2.60;;;;;;;15.09;79.49;101639.28;5072100;28;20029;-73
2021/06/13 02:10:49;;;;;;;12.80;2.90;;;;;;;15.23;78.26;101643.03;5083311;28;20437;-73
2021/06/13 02:13:16;;;;;;;9.00;2.90;;;;;;;15.29;77.95;101638.09;5057846;28;20317;-73
2021/06/13 02:15:45;;;;;;;8.50;2.60;;;;;;;15.10;78.85;101640.84;5069425;28;20414;-73
2021/06/13 02:18:11;;;;;;;10.00;3.00;;;;;;;15.01;79.25;101632.94;5074490;28;20108;-73
2021/06/13 02:20:38;;;;;;;13.18;3.10;;;;;;;15.09;78.80;101642.00;5082080;28;20103;-72
2021/06/13 02:23:05;;;;;;;8.02;2.40;;;;;;;14.96;79.79;101635.19;5048149;28;20028;-73
2021/06/13 02:25:31;;;;;;;9.73;2.83;;;;;;;15.07;79.12;101636.16;5070997;28;20484;-73
2021/06/13 02:28:00;;;;;;;9.20;2.78;;;;;;;15.08;78.88;101643.13;5071345;28;20052;-73
2021/06/13 02:30:36;;;;;;;10.77;2.88;;;;;;;15.21;78.39;101653.44;5085655;28;20494;-73
2021/06/13 02:33:02;;;;;;;8.63;3.30;;;;;;;15.29;78.29;101652.44;5086180;28;20035;-72
2021/06/13 02:35:29;;;;;;;11.38;2.65;;;;;;;15.41;77.61;101656.91;5068072;28;20039;-73
2021/06/13 02:37:57;;;;;;;13.90;3.08;;;;;;;15.32;78.08;101653.66;5067998;28;20055;-73
2021/06/13 02:40:26;;;;;;;13.50;2.75;;;;;;;15.34;78.46;101656.78;5076782;28;20488;-73
2021/06/13 02:42:53;;;;;;;16.33;3.00;;;;;;;15.40;78.67;101655.34;5082457;28;20484;-73
2021/06/13 02:45:21;;;;;;;9.32;3.10;;;;;;;15.51;77.15;101669.91;5083440;28;20137;-73
2021/06/13 02:47:50;;;;;;;13.55;2.80;;;;;;;15.63;76.53;101669.72;5066363;28;20411;-73
2021/06/13 02:50:21;;;;;;;8.93;2.70;;;;;;;15.66;76.64;101674.41;5083767;28;20557;-73
2021/06/13 02:53:02;;;;;;;7.00;2.90;;;;;;;15.64;76.67;101675.94;5070160;28;20088;-73
2021/06/13 02:55:43;;;;;;;7.53;2.33;;;;;;;15.65;77.24;101666.63;5068601;28;20127;-73
2021/06/13 02:58:41;;;;;;;15.38;3.70;;;;;;;15.69;77.02;101675.63;5068650;28;20484;-73
2021/06/13 03:01:11;;;;;;;11.45;2.88;;;;;;;15.79;76.89;101675.81;5032114;28;20040;-72
2021/06/13 03:03:38;;;;;;;6.40;2.53;;;;;;;15.82;77.03;101677.00;5090124;28;20032;-73
2021/06/13 03:06:09;;;;;;;10.02;2.50;;;;;;;15.78;78.03;101676.94;5070876;28;20019;-73
2021/06/13 03:08:36;;;;;;;8.02;2.58;;;;;;;15.78;77.68;101674.22;5065942;28;20032;-73
2021/06/13 03:11:04;;;;;;;14.77;3.20;;;;;;;15.78;77.32;101665.28;5072610;28;20032;-73
2021/06/13 03:13:31;;;;;;;12.88;2.85;;;;;;;15.73;77.42;101677.25;5062825;28;20034;-73
2021/06/13 03:16:00;;;;;;;11.32;3.08;;;;;;;15.85;76.51;101673.56;5064595;28;20435;-72
2021/06/13 03:18:28;;;;;;;8.15;2.25;;;;;;;15.88;76.15;101670.91;5086305;28;20109;-73
2021/06/13 03:20:56;;;;;;;7.45;2.40;;;;;;;15.87;76.31;101674.75;5070049;28;20027;-72
2021/06/13 03:23:23;;;;;;;9.43;2.50;;;;;;;15.96;74.43;101674.50;5078681;28;20036;-71
2021/06/13 03:25:49;;;;;;;8.43;2.45;;;;;;;15.80;75.58;101680.09;5084610;28;20033;-72
2021/06/13 03:28:18;;;;;;;8.60;2.50;;;;;;;15.66;76.56;101679.84;5091036;28;20091;-72
2021/06/13 03:30:46;;;;;;;15.27;3.03;;;;;;;15.68;76.46;101679.50;5073959;28;20484;-72
2021/06/13 03:33:12;;;;;;;10.20;2.35;;;;;;;15.77;76.53;101680.81;5070841;28;20297;-72
2021/06/13 03:35:40;;;;;;;12.55;2.60;;;;;;;15.77;77.15;101678.09;5090580;28;20059;-72
2021/06/13 03:38:08;;;;;;;7.07;2.72;;;;;;;15.93;76.01;101684.16;5071816;28;20519;-72
2021/06/13 03:40:34;;;;;;;14.48;2.78;;;;;;;15.96;75.44;101683.44;5080483;28;20051;-72
2021/06/13 03:43:02;;;;;;;13.30;2.97;;;;;;;15.88;76.46;101678.25;5063553;28;20504;-72
2021/06/13 03:45:28;;;;;;;12.65;2.58;;;;;;;15.93;76.43;101681.44;5089096;28;20115;-73
2021/06/13 03:47:57;;;;;;;12.73;2.92;;;;;;;15.99;76.33;101692.78;5085799;28;20032;-72
2021/06/13 03:50:23;;;;;;;15.05;2.88;;;;;;;15.87;76.23;101698.44;5075750;28;20493;-73
2021/06/13 03:52:49;;;;;;;13.00;2.47;;;;;;;15.97;76.09;101698.59;5081759;28;20590;-72
2021/06/13 03:55:15;;;;;;;10.25;2.95;;;;;;;15.91;76.74;101697.31;5089062;28;20040;-73
2021/06/13 03:57:45;;;;;;;13.38;2.53;;;;;;;15.89;77.16;101693.44;5092424;28;20047;-72
2021/06/13 04:00:13;;;;;;;8.73;2.63;;;;;;;16.03;76.34;101699.84;5079852;28;20031;-72
2021/06/13 04:02:43;;;;;;;9.70;2.58;;;;;;;15.96;76.30;101693.53;5091484;28;20126;-72
2021/06/13 04:05:11;;;;;;;12.32;2.72;;;;;;;16.17;75.75;101707.44;5091551;28;20032;-72
2021/06/13 04:07:38;;;;;;;10.13;3.00;;;;;;;16.07;75.91;101706.13;5089529;28;20031;-72
2021/06/13 04:10:04;;;;;;;13.23;3.00;;;;;;;16.07;76.02;101700.69;5081154;28;20036;-72
2021/06/13 04:12:31;;;;;;;14.20;2.50;;;;;;;15.98;76.82;101710.25;5084591;28;20051;-72
2021/06/13 04:14:59;;;;;;;11.13;2.60;;;;;;;16.13;75.80;101714.75;5090131;28;20578;-72
2021/06/13 04:17:26;;;;;;;11.90;2.88;;;;;;;16.09;76.17;101713.91;5070053;28;20032;-72
2021/06/13 04:19:54;;;;;;;9.00;2.08;;;;;;;16.04;77.03;101719.66;5082833;28;20040;-72
2021/06/13 04:22:21;;;;;;;8.02;2.92;;;;;;;16.00;77.53;101716.91;5076719;28;20073;-72
2021/06/13 04:24:52;;;;;;;13.07;2.80;;;;;;;16.12;77.06;101718.63;5091101;28;20067;-72
2021/06/13 04:27:20;;;;;;;5.70;2.53;;;;;;;16.08;76.76;101721.28;5078150;28;20124;-72
2021/06/13 04:29:46;;;;;;;13.20;2.85;;;;;;;16.27;76.15;101723.91;5090176;28;20027;-72
2021/06/13 04:32:12;;;;;;;9.73;2.60;;;;;;;16.21;76.07;101721.84;5084479;28;20038;-71
2021/06/13 04:34:38;;;;;;;10.95;2.63;;;;;;;16.20;75.87;101720.31;5071605;28;20043;-72
2021/06/13 04:37:05;;;;;;;12.10;2.90;;;;;;;16.09;77.32;101725.56;5081763;28;20039;-72
2021/06/13 04:39:32;;;;;;;11.07;2.85;;;;;;;16.21;76.71;101727.28;5069887;28;20032;-72
2021/06/13 04:42:01;;;;;;;7.85;2.60;;;;;;;16.16;76.76;101719.47;5087981;28;20031;-72
2021/06/13 04:44:27;;;;;;;13.32;2.88;;;;;;;16.23;77.58;101728.50;5078818;28;20039;-72
2021/06/13 04:46:52;;;;;;;14.40;2.40;;;;;;;16.19;77.72;101729.59;5090774;28;20024;-72
2021/06/13 04:49:18;;;;;;;8.35;2.53;;;;;;;16.19;77.80;101729.59;5086416;28;20033;-72
2021/06/13 04:51:46;;;;;;;17.48;3.53;;;;;;;16.21;78.05;101724.56;5088129;28;20571;-72
2021/06/13 04:54:38;;;;;;;13.25;2.80;;;;;;;16.32;77.63;101733.66;5083343;28;20162;-73
2021/06/13 04:57:04;;;;;;;11.85;2.80;;;;;;;16.29;77.35;101734.41;5067935;28;20439;-73
2021/06/13 04:59:29;;;;;;;11.75;2.88;;;;;;;16.40;76.20;101740.78;5077230;28;20031;-72
2021/06/13 05:01:55;;;;;;;11.68;2.85;;;;;;;16.21;77.80;101724.56;5076478;28;20040;-72
2021/06/13 05:04:20;;;;;;;11.65;2.55;;;;;;;16.31;76.25;101742.19;5084459;28;20043;-73
2021/06/13 05:06:46;;;;;;;14.60;3.10;;;;;;;16.35;76.48;101745.75;5089640;28;20039;-72
2021/06/13 05:09:12;;;;;;;11.52;2.90;;;;;;;16.23;77.31;101733.94;5089542;28;20040;-72
2021/06/13 05:11:38;;;;;;;12.38;3.20;;;;;;;16.35;76.72;101719.34;5080763;28;20087;-72
2021/06/13 05:14:05;;;;;;;11.65;3.15;;;;;;;16.43;76.71;101734.63;5078280;28;20063;-73
2021/06/13 05:16:31;;;;;;;9.95;2.88;;;;;;;16.40;77.45;101729.91;5080626;28;20032;-72
2021/06/13 05:18:57;;;;;;;11.27;2.67;;;;;;;16.30;78.06;101724.31;5090014;28;20028;-72
2021/06/13 05:21:22;;;;;;;15.77;3.15;;;;;;;16.47;77.43;101727.28;5085792;28;20092;-73
2021/06/13 05:23:48;;;;;;;16.38;3.40;;;;;;;16.65;76.60;101732.97;5090102;28;20032;-73
2021/06/13 05:26:13;;;;;;;7.88;2.85;;;;;;;16.74;76.41;101733.50;5074697;28;20467;-71
2021/06/13 05:28:39;;;;;;;9.98;3.08;;;;;;;16.84;76.33;101722.72;5073077;28;20418;-72
2021/06/13 05:31:06;;;;;;;9.63;2.92;;;;;;;16.80;76.29;101735.50;5089397;28;20419;-72
2021/06/13 05:33:32;;;;;;;15.95;3.20;;;;;;;16.77;77.00;101730.81;5091213;28;20034;-72
2021/06/13 05:35:58;;;;;;;10.57;3.17;;;;;;;16.71;77.45;101731.50;5080199;28;20714;-73
2021/06/13 05:38:23;;;;;;;8.77;3.20;;;;;;;17.21;76.21;101724.72;5079295;28;20036;-72
2021/06/13 05:40:49;;;;;;;15.43;3.17;;;;;;;17.41;74.20;101724.13;5084778;28;20039;-72
2021/06/13 05:43:16;;;;;;;10.82;2.70;;;;;;;17.38;73.93;101730.31;5080173;28;20032;-73
2021/06/13 05:45:42;;;;;;;17.80;3.28;;;;;;;17.30;74.29;101733.38;5080239;28;20036;-72
2021/06/13 05:48:09;;;;;;;15.18;3.83;;;;;;;17.25;74.72;101737.19;5080868;28;20033;-72
2021/06/13 05:50:35;;;;;;;14.20;3.10;;;;;;;17.25;74.52;101729.03;5079870;28;20031;-72
2021/06/13 05:53:01;;;;;;;13.88;3.45;;;;;;;17.17;74.91;101741.78;5103412;22;20134;-74
2021/06/13 05:55:27;;;;;;;12.07;3.00;;;;;;;17.19;75.21;101752.28;5080304;28;20027;-74
2021/06/13 05:57:53;;;;;;;14.25;3.45;;;;;;;17.22;75.17;101753.50;5077612;28;20054;-73
2021/06/13 06:00:23;;;;;;;15.52;3.15;;;;;;;17.15;75.51;101746.81;5082183;28;20032;-74
2021/06/13 06:02:49;;;;;;;13.70;3.13;;;;;;;17.16;75.26;101750.34;5086132;28;20033;-74
2021/06/13 06:05:18;;;;;;;15.77;3.33;;;;;;;17.23;75.54;101765.97;5089882;28;20035;-74
2021/06/13 06:07:44;;;;;;;17.20;3.40;;;;;;;17.35;75.48;101768.41;5086344;28;20035;-74
2021/06/13 06:10:12;;;;;;;15.73;3.65;;;;;;;17.17;77.38;101760.06;5088414;28;20032;-74
2021/06/13 06:12:38;;;;;;;14.63;3.78;;;;;;;17.07;78.79;101768.91;5098277;28;20028;-73
2021/06/13 06:15:06;;;;;;;13.32;3.35;;;;;;;16.95;79.90;101777.31;5089033;28;20545;-75
2021/06/13 06:17:31;;;;;;;14.32;3.70;;;;;;;17.03;78.65;101779.72;5084078;28;20036;-74
2021/06/13 06:19:57;;;;;;;14.23;3.50;;;;;;;16.89;77.86;101778.78;5087493;28;20031;-74
2021/06/13 06:22:22;;;;;;;11.38;3.80;;;;;;;16.81;79.42;101777.13;5072155;28;20131;-74
2021/06/13 06:24:48;;;;;;;9.18;3.58;;;;;;;16.87;77.65;101781.09;5101118;28;20024;-73
2021/06/13 06:27:13;;;;;;;8.77;3.35;;;;;;;16.85;76.29;101788.81;5107137;28;20067;-73
2021/06/13 06:29:39;;;;;;;12.07;3.58;;;;;;;16.80;76.29;101798.09;5087930;28;20039;-74
2021/06/13 06:32:05;;;;;;;11.65;3.53;;;;;;;16.70;76.92;101803.41;5059935;28;20577;-74
2021/06/13 06:34:30;;;;;;;12.02;3.50;;;;;;;16.87;76.99;101781.09;5090618;28;20042;-73
2021/06/13 06:36:56;;;;;;;10.63;3.47;;;;;;;17.11;74.90;101795.00;5069562;28;20123;-74
2021/06/13 06:39:21;;;;;;;13.95;3.83;;;;;;;17.32;74.15;101801.84;5077556;28;20134;-74
2021/06/13 06:41:48;;;;;;;12.98;3.67;;;;;;;17.39;74.29;101791.81;5074610;28;20047;-74
2021/06/13 06:44:13;;;;;;;9.70;3.47;;;;;;;17.49;73.28;101785.75;5089610;28;20024;-74
2021/06/13 06:46:39;;;;;;;12.20;3.50;;;;;;;17.55;73.04;101783.47;5070052;28;20383;-74
2021/06/13 06:49:06;;;;;;;11.57;3.63;;;;;;;17.79;72.46;101782.91;5084828;28;20867;-73
2021/06/13 06:51:32;;;;;;;12.00;3.42;;;;;;;17.86;72.13;101800.13;5083925;28;20400;-74
2021/06/13 06:53:58;;;;;;;10.15;3.67;;;;;;;17.98;70.82;101801.78;5090797;28;20028;-74
2021/06/13 06:56:25;;;;;;;11.70;3.60;;;;;;;18.06;70.82;101802.63;5084596;28;20024;-72
2021/06/13 06:58:51;;;;;;;11.50;3.55;;;;;;;18.23;69.54;101812.88;5053399;28;20069;-72
2021/06/13 07:01:17;;;;;;;10.27;3.38;;;;;;;18.18;69.80;101807.75;5072003;28;20028;-72
2021/06/13 07:03:42;;;;;;;13.35;3.50;;;;;;;18.12;70.04;101814.75;5087109;28;20041;-72
2021/06/13 07:06:08;;;;;;;11.52;3.85;;;;;;;18.15;69.72;101812.06;5058574;28;20020;-72
2021/06/13 07:08:34;;;;;;;15.23;3.72;;;;;;;18.16;68.72;101815.53;5078260;28;20034;-72
2021/06/13 07:10:59;;;;;;;12.15;3.50;;;;;;;18.32;68.49;101822.31;5063600;28;20403;-74
2021/06/13 07:13:25;;;;;;;11.85;3.50;;;;;;;18.41;69.40;101830.94;5071595;28;20100;-72
2021/06/13 07:15:51;;;;;;;9.35;3.30;;;;;;;18.36;68.38;101835.97;5089410;28;20036;-72
2021/06/13 07:18:16;;;;;;;15.60;3.65;;;;;;;18.48;68.90;101819.34;5087295;28;20093;-72
2021/06/13 07:20:42;;;;;;;8.57;3.38;;;;;;;18.62;68.25;101830.34;5073749;28;20472;-72
2021/06/13 07:23:08;;;;;;;10.00;3.10;;;;;;;18.93;66.88;101824.28;5090358;28;20028;-72
2021/06/13 07:25:33;;;;;;;12.60;3.50;;;;;;;19.31;66.37;101839.28;5086342;28;20500;-73
2021/06/13 07:27:59;;;;;;;8.88;2.80;;;;;;;19.33;64.16;101840.50;5090184;28;20603;-74
2021/06/13 07:30:26;;;;;;;8.55;3.05;;;;;;;19.24;63.74;101839.28;5070836;28;20040;-74
2021/06/13 07:32:52;;;;;;;11.15;3.03;;;;;;;19.02;63.60;101840.31;5097686;28;20053;-74
2021/06/13 07:35:19;;;;;;;9.68;2.63;;;;;;;18.91;65.78;101843.78;5085878;28;20028;-74
2021/06/13 07:37:46;;;;;;;10.82;2.78;;;;;;;18.93;66.70;101854.31;5085284;28;20927;-74
2021/06/13 07:40:13;;;;;;;11.35;3.30;;;;;;;19.03;67.80;101847.38;5084424;28;20039;-73
2021/06/13 07:42:39;;;;;;;10.98;3.25;;;;;;;19.18;66.71;101854.47;5083520;28;20588;-74
2021/06/13 07:45:08;;;;;;;9.25;3.17;;;;;;;19.45;66.30;101856.53;5069301;28;20037;-74
2021/06/13 07:47:34;;;;;;;13.63;3.38;;;;;;;19.90;64.18;101863.28;5084330;28;20126;-74
2021/06/13 07:49:59;;;;;;;11.52;3.03;;;;;;;20.10;62.98;101864.50;5081296;28;20036;-74
2021/06/13 07:52:26;;;;;;;11.43;2.92;;;;;;;20.34;63.11;101868.47;5077861;28;20120;-74
2021/06/13 07:54:52;;;;;;;12.32;3.75;;;;;;;20.27;61.07;101876.66;5075647;28;20036;-74
2021/06/13 07:57:17;;;;;;;10.55;3.03;;;;;;;20.19;59.81;101869.63;5084052;28;20098;-74
2021/06/13 07:59:43;;;;;;;16.13;3.20;;;;;;;19.94;60.03;101874.25;5089315;28;20035;-73
2021/06/13 08:02:10;;;;;;;11.18;3.33;;;;;;;19.79;61.99;101879.69;5055650;28;20035;-74
2021/06/13 08:04:37;;;;;;;10.40;3.08;;;;;;;19.78;63.61;101878.13;5087304;28;20051;-74
2021/06/13 08:07:04;;;;;;;12.50;3.05;;;;;;;19.76;63.17;101882.44;5092630;28;20376;-74
2021/06/13 08:09:29;;;;;;;13.13;2.80;;;;;;;19.77;63.51;101881.25;5092243;28;20081;-74
2021/06/13 08:11:55;;;;;;;13.50;3.42;;;;;;;19.84;63.61;101880.50;5086550;28;20111;-74
2021/06/13 08:14:21;;;;;;;12.52;3.47;;;;;;;19.85;64.07;101890.25;5085830;28;20103;-74
2021/06/13 08:16:47;;;;;;;8.65;2.65;;;;;;;19.96;64.49;101897.28;5083649;28;20905;-73
2021/06/13 08:19:12;;;;;;;11.95;3.15;;;;;;;20.02;62.44;101894.97;5083908;28;20026;-74
2021/06/13 08:21:38;;;;;;;11.45;2.70;;;;;;;19.99;63.83;101896.53;5079301;28;20036;-74
2021/06/13 08:24:04;;;;;;;11.02;2.95;;;;;;;20.00;63.66;101894.56;5089322;28;20063;-73
2021/06/13 08:26:31;;;;;;;12.75;3.03;;;;;;;20.06;63.15;101899.28;5081554;28;20081;-74
2021/06/13 08:29:01;;;;;;;12.85;3.08;;;;;;;20.14;63.57;101902.81;5086540;28;20056;-74
2021/06/13 08:31:27;;;;;;;11.25;3.05;;;;;;;20.37;62.40;101901.28;5084755;28;20052;-74
2021/06/13 08:33:52;;;;;;;9.05;2.75;;;;;;;20.40;61.52;101902.47;5063632;28;20028;-74
2021/06/13 08:36:18;;;;;;;11.00;3.42;;;;;;;20.48;63.15;101906.75;5084797;28;20112;-74
2021/06/13 08:38:44;;;;;;;10.52;3.08;;;;;;;20.67;62.28;101909.13;5084287;28;20032;-74
2021/06/13 08:41:10;;;;;;;9.20;2.83;;;;;;;20.71;60.27;101901.69;5081674;28;20038;-73
2021/06/13 08:43:36;;;;;;;8.45;2.88;;;;;;;20.30;58.21;101914.19;5085737;28;20097;-74
2021/06/13 08:46:04;;;;;;;9.93;2.90;;;;;;;20.20;60.80;101918.50;5064635;28;20032;-74
2021/06/13 08:48:31;;;;;;;12.18;3.38;;;;;;;20.09;62.45;101928.56;5071854;28;20593;-74
2021/06/13 08:51:01;;;;;;;10.95;3.33;;;;;;;20.08;62.11;101920.75;5079654;28;20760;-74
2021/06/13 08:53:27;;;;;;;9.35;3.25;;;;;;;20.13;61.62;101923.13;5084483;28;20032;-74
2021/06/13 08:55:54;;;;;;;10.65;3.30;;;;;;;20.28;61.40;101920.06;5081402;28;20549;-74
2021/06/13 08:58:20;;;;;;;10.57;2.90;;;;;;;20.87;62.11;101925.91;5067699;28;20101;-74
2021/06/13 09:00:47;;;;;;;11.70;3.15;;;;;;;21.16;59.49;101924.69;5084155;28;20392;-73
2021/06/13 09:03:13;;;;;;;9.25;3.25;;;;;;;21.35;57.48;101925.03;5083353;28;20040;-74
2021/06/13 09:05:39;;;;;;;9.57;3.05;;;;;;;21.10;57.78;101934.53;5079546;28;20119;-74
2021/06/13 09:08:10;;;;;;;9.68;3.10;;;;;;;21.00;58.99;101938.03;5076750;28;21528;-74
2021/06/13 09:10:38;;;;;;;12.93;3.03;;;;;;;21.08;57.54;101945.09;5060408;28;20046;-74
2021/06/13 09:13:07;;;;;;;12.90;3.42;;;;;;;21.04;56.22;101947.06;5056200;28;20040;-74
2021/06/13 09:15:46;;;;;;;15.07;3.00;;;;;;;21.09;57.60;101944.69;5071335;28;20451;-75
2021/06/13 09:18:31;;;;;;;14.48;3.63;;;;;;;21.28;57.09;101938.00;5052684;28;20519;-75
2021/06/13 09:20:59;;;;;;;11.23;3.55;;;;;;;21.24;56.72;101948.19;5082299;28;20044;-74
2021/06/13 09:23:30;;;;;;;12.05;3.47;;;;;;;21.07;57.33;101951.75;5074991;28;20032;-74
2021/06/13 09:26:10;;;;;;;12.38;3.17;;;;;;;21.02;58.25;101950.16;5088847;28;20122;-75
2021/06/13 09:28:38;;;;;;;15.52;3.50;;;;;;;21.09;58.38;101955.66;5078976;28;20619;-74
2021/06/13 09:31:05;;;;;;;10.52;3.30;;;;;;;21.09;57.12;101958.41;5073206;28;20031;-74
2021/06/13 09:33:35;;;;;;;11.02;3.45;;;;;;;21.08;58.84;101959.56;5075844;28;20028;-75
2021/06/13 09:36:04;;;;;;;18.83;4.00;;;;;;;21.25;58.69;101972.44;5088621;28;20036;-75
2021/06/13 09:38:32;;;;;;;12.38;3.40;;;;;;;21.10;57.28;101972.88;5090761;28;20391;-74
2021/06/13 09:41:02;;;;;;;12.65;3.70;;;;;;;21.07;56.57;101977.19;5089297;28;20067;-74
2021/06/13 09:43:49;;;;;;;16.55;3.90;;;;;;;21.05;59.11;101971.31;5083418;28;20036;-75
2021/06/13 09:46:30;;;;;;;15.77;4.07;;;;;;;21.23;58.14;101963.06;5073067;28;20139;-75
2021/06/13 09:49:04;;;;;;;10.57;3.83;;;;;;;21.46;58.15;101969.66;5079677;28;20071;-75
2021/06/13 09:51:35;;;;;;;15.85;4.03;;;;;;;21.64;58.40;101977.81;5080781;28;20100;-75
2021/06/13 09:54:03;;;;;;;15.65;3.90;;;;;;;21.61;56.49;101972.34;5078594;28;20039;-75
2021/06/13 09:56:30;;;;;;;13.25;4.00;;;;;;;21.83;58.00;101976.59;5080745;28;20028;-75
2021/06/13 09:58:58;;;;;;;10.02;3.80;;;;;;;21.72;56.98;101970.38;5090448;28;20024;-75
2021/06/13 10:01:32;;;;;;;11.23;4.15;;;;;;;21.64;56.10;101971.56;5082734;28;20025;-75
2021/06/13 10:03:59;;;;;;;13.82;3.78;;;;;;;21.49;55.90;101971.59;5079587;28;20181;-75
2021/06/13 10:06:30;;;;;;;11.40;4.05;;;;;;;21.13;56.37;101974.84;5082416;28;20432;-75
2021/06/13 10:08:57;;;;;;;7.68;3.70;;;;;;;20.95;58.27;101976.75;5082192;28;20032;-75
2021/06/13 10:11:23;;;;;;;10.45;3.90;;;;;;;21.04;57.96;101972.47;5076978;28;20040;-75
2021/06/13 10:14:00;;;;;;;9.63;3.65;;;;;;;21.38;59.43;101970.88;5085867;28;20438;-74
2021/06/13 10:17:01;;;;;;;11.07;3.17;;;;;;;21.81;57.58;101968.00;5083372;28;20032;-75
2021/06/13 10:19:36;;;;;;;11.02;4.10;;;;;;;21.95;56.30;101965.94;5063036;28;20044;-75
2021/06/13 10:22:02;;;;;;;18.25;4.25;;;;;;;22.64;57.65;101976.13;5083017;28;20070;-75
2021/06/13 10:24:30;;;;;;;10.00;3.35;;;;;;;22.97;55.70;101976.25;5079474;28;20028;-74
2021/06/13 10:26:59;;;;;;;13.82;3.53;;;;;;;22.79;54.90;101975.59;5085181;28;20028;-74
2021/06/13 10:29:27;;;;;;;9.27;3.63;;;;;;;22.71;54.37;101971.34;5086111;28;20031;-74
2021/06/13 10:31:56;;;;;;;10.35;3.67;;;;;;;22.85;54.64;101990.47;5080447;28;20028;-74
2021/06/13 10:34:22;;;;;;;11.23;4.00;;;;;;;22.96;54.72;101982.13;5079547;28;20144;-74
2021/06/13 10:36:48;;;;;;;10.02;3.95;;;;;;;23.09;52.75;101972.97;5079800;28;20028;-74
2021/06/13 10:39:19;;;;;;;11.52;3.80;;;;;;;22.88;51.26;101986.16;5081829;28;20028;-74
2021/06/13 10:41:46;;;;;;;11.38;3.75;;;;;;;22.64;51.79;101984.38;5081936;28;20019;-74
2021/06/13 10:44:19;;;;;;;7.93;3.63;;;;;;;22.38;52.27;101978.25;5080715;28;20031;-72
2021/06/13 10:46:48;;;;;;;13.35;4.25;;;;;;;22.49;53.38;101982.88;5062330;28;20017;-72
2021/06/13 10:49:29;;;;;;;8.43;3.42;;;;;;;22.60;53.55;101978.13;5081108;28;20024;-72
2021/06/13 10:52:31;;;;;;;9.73;3.50;;;;;;;23.00;52.97;101975.41;5081578;28;20039;-73
2021/06/13 10:55:03;;;;;;;9.77;3.50;;;;;;;23.35;51.26;101973.50;5057970;28;20089;-72
2021/06/13 10:57:34;;;;;;;10.38;3.55;;;;;;;23.24;50.16;101979.91;5075697;28;20036;-72
2021/06/13 11:00:26;;;;;;;10.43;3.75;;;;;;;22.96;50.34;101990.38;5074583;28;20036;-72
2021/06/13 11:03:00;;;;;;;10.45;3.40;;;;;;;23.09;51.82;101986.72;5054989;28;20475;-72
2021/06/13 11:05:46;;;;;;;11.95;4.00;;;;;;;23.51;52.49;101971.78;5082825;28;20024;-72
2021/06/13 11:08:13;;;;;;;10.15;3.85;;;;;;;23.39;51.81;101977.81;5084680;28;20032;-72
2021/06/13 11:10:39;;;;;;;14.50;3.78;;;;;;;23.62;51.86;101980.69;5080157;28;20073;-72
2021/06/13 11:13:04;;;;;;;12.23;4.07;;;;;;;23.52;49.46;101986.31;5075162;28;20370;-73
2021/06/13 11:15:35;;;;;;;14.32;3.97;;;;;;;23.53;50.12;101985.13;5080537;28;20032;-73
2021/06/13 11:18:21;;;;;;;11.40;3.22;;;;;;;23.19;51.01;101980.34;5081867;28;20044;-73
2021/06/13 11:20:49;;;;;;;10.68;3.47;;;;;;;23.47;50.98;101992.25;5077786;28;20040;-73
2021/06/13 11:23:21;;;;;;;11.43;4.00;;;;;;;23.62;51.85;101990.88;5076171;28;20024;-73
2021/06/13 11:25:47;;;;;;;9.02;3.50;;;;;;;23.65;49.97;101995.59;5078649;28;20024;-73
2021/06/13 11:28:17;;;;;;;9.80;3.67;;;;;;;23.43;50.64;101986.78;5057524;28;20058;-74